Mary Arctica — BATEU00 — position and weather

sailwx.info

Track history (hours):
 
Tides and Currents Weather Stations Pressure Air Temp Water Temp Dewpoint Dewpoint Depression Visibility Wind Speed Wind Dir Waves Ship Positions

Mary Arctica

Last reported at 2018-Jan-04 08:00 UTC. Time now 2018-Jan-18 00:19 UTC.
Position S 67°30' E 006°48'.
Warning: this ship's position is 13 days out of date.

Wind from 240 at 27 knots

Barometer 975.4 mb
Air temperature -1.3 ° C
Dewpoint -9.3 ° C

Date/timePositionNaut miles runAvg speedWind from/ knotsBaromVisibWave heightAir tempDewpointWater temp
2018-Jan-04 08:00S 67°30' E 006°48'4912.2 240 / 27975.4 -1.3-9.3
2018-Jan-04 04:00S 66°42' E 007°12'2412.2 240 / 19978.3 -1.3-10.3
2018-Jan-04 02:00S 66°18' E 007°24'1312.9 240 / 18978.9 -0.8-9.0
2018-Jan-04 01:00S 66°06' E 007°36'1212.2 240 / 18979.0 -0.8-8.7
2018-Jan-04 00:00S 65°54' E 007°42'1212.2 250 / 16979.4 -0.8-8.5
2018-Jan-03 23:00S 65°42' E 007°48'3015.2 240 / 15979.6 -0.8-8.7
2018-Jan-03 21:00S 65°12' E 008°00'2512.3 250 / 12979.5 -0.6-8.5
2018-Jan-03 19:00S 64°48' E 008°12'1212.3 270 / 13979.4 -0.2-7.8
2018-Jan-03 18:00S 64°36' E 008°18'1818.2 270 / 12979.4 -0.3-8.0
2018-Jan-03 17:00S 64°18' E 008°24'1212.3 260 / 14979.8 -0.3-8.2
2018-Jan-03 16:00S 64°06' E 008°30'6813.6 260 / 13980.0 -0.3-8.0
2018-Jan-03 11:00S 63°00' E 009°06'1212.0 260 / 14981.3 -1.0-6.8
2018-Jan-03 10:00S 62°48' E 009°06'9213.1 250 / 16981.3 -0.7-7.1
2018-Jan-03 03:00S 61°18' E 009°42'3712.3 250 / 21983.1 -0.7-7.1
2018-Jan-03 00:00S 60°42' E 010°00'1212.0 240 / 24983.6 -0.7-6.6
2018-Jan-02 23:00S 60°30' E 010°00'1212.4 240 / 25983.7 -0.7-6.3
2018-Jan-02 22:00S 60°18' E 010°06'1212.4 240 / 26983.5 -0.6-7.2
2018-Jan-02 21:00S 60°06' E 010°12'2512.4 230 / 27983.0 -0.5-6.7
2018-Jan-02 19:00S 59°42' E 010°24'1212.0 230 / 29982.1 -0.3-7.2
2018-Jan-02 18:00S 59°30' E 010°24'7 6.7 230 / 28981.8 -0.6-6.5
2018-Jan-02 17:00S 59°24' E 010°30'2512.4 230 / 28982.0 -0.3-6.3
2018-Jan-02 15:00S 59°00' E 010°42'1212.0 230 / 28981.5 -0.3-6.7
2018-Jan-02 14:00S 58°48' E 010°42'5511.1 230 / 31980.5 -0.5-6.7
2018-Jan-02 09:00S 57°54' E 011°06'18 9.1 230 / 34978.3 -0.3-6.5
2018-Jan-02 07:00S 57°36' E 011°12'2412.1 230 / 33977.7 -0.6-6.5
2018-Jan-02 05:00S 57°12' E 011°18'7412.3 240 / 31977.2 -0.6-7.0
2018-Jan-01 23:00S 56°00' E 011°48'2412.1 260 / 30977.5 -0.3-5.8
2018-Jan-01 21:00S 55°36' E 011°54'2412.1 260 / 30977.6 -0.1-5.7
2018-Jan-01 19:00S 55°12' E 012°00'1212.5 260 / 29976.7 -0.0-5.3
2018-Jan-01 18:00S 55°00' E 012°06'1212.5 260 / 30976.4 -0.1-4.8
2018-Jan-01 17:00S 54°48' E 012°12'2412.1 260 / 31976.1 0.2-5.3
2018-Jan-01 15:00S 54°24' E 012°18'1312.5 270 / 33975.1 0.2-4.3
2018-Jan-01 14:00S 54°12' E 012°24'1312.5 290 / 29976.0 -0.0-4.3
2018-Jan-01 13:00S 54°00' E 012°30'1312.5 290 / 32977.0 0.4-4.7
2018-Jan-01 12:00S 53°48' E 012°36'2412.1 300 / 28978.3 0.7-4.6
2018-Jan-01 10:00S 53°24' E 012°42'1818.4 280 / 25980.4 0.7-3.5
2018-Jan-01 09:00S 53°06' E 012°48'1312.5 290 / 24980.9 1.0-2.8
2018-Jan-01 08:00S 52°54' E 012°54'4314.2 300 / 21982.0 1.0-2.8
2018-Jan-01 05:00S 52°12' E 013°06'1312.6 290 / 22984.8 1.7-2.5
2018-Jan-01 04:00S 52°00' E 013°12'1212.0 300 / 23985.4 2.2-1.8
2018-Jan-01 03:00S 51°48' E 013°12'4314.2 310 / 25986.2 2.4-1.7
2018-Jan-01 00:00S 51°06' E 013°24'1312.6 320 / 33989.6 3.7-0.7
2017-Dec-31 23:00S 50°54' E 013°30'1312.6 330 / 33991.5 3.5-0.8
2017-Dec-31 22:00S 50°42' E 013°36'1312.6 330 / 32994.3 3.4-1.0
2017-Dec-31 21:00S 50°30' E 013°42'5513.6
2017-Dec-31 17:00S 49°36' E 013°54'1312.6 310 / 281002.6 4.2-0.6
2017-Dec-31 16:00S 49°24' E 014°00'3015.1 310 / 231004.0 4.4-0.2
2017-Dec-31 14:00S 48°54' E 014°06'1312.6 320 / 181006.3 4.7-0.3
2017-Dec-31 13:00S 48°42' E 014°12'3015.1 310 / 171007.5 4.9-0.3
2017-Dec-31 11:00S 48°12' E 014°18'4912.4 300 / 151008.5 4.9-0.7
2017-Dec-31 07:00S 47°24' E 014°36'1212.0 180 / 91009.1 4.2-2.7
2017-Dec-31 06:00S 47°12' E 014°36'1818.5 190 / 131008.8 3.9-2.8
2017-Dec-31 05:00S 46°54' E 014°42'2412.2 180 / 141007.8 3.9-3.2
2017-Dec-31 03:00S 46°30' E 014°48'2512.7 180 / 141007.0 3.9-1.7
2017-Dec-31 01:00S 46°06' E 015°00'4314.3 180 / 101006.0 5.4 0.4
2017-Dec-30 22:00S 45°24' E 015°12'1212.0 160 / 101006.3 6.2 1.9
2017-Dec-30 21:00S 45°12' E 015°12'1312.7 160 / 91006.4 6.7 2.4
2017-Dec-30 20:00S 45°00' E 015°18'1818.5 140 / 11006.7 8.4 3.9
2017-Dec-30 19:00S 44°42' E 015°24'1212.0 090 / 21005.9 9.0 4.7
2017-Dec-30 18:00S 44°30' E 015°24'1312.7 290 / 51008.3 10.5 6.2
2017-Dec-30 17:00S 44°18' E 015°30'1212.0 300 / 151008.9 10.7 6.2
2017-Dec-30 16:00S 44°06' E 015°30'4314.3 300 / 171008.9 11.7 7.2
2017-Dec-30 13:00S 43°24' E 015°42'1312.8 320 / 181009.6 12.2 7.5
2017-Dec-30 12:00S 43°12' E 015°48'1212.0 320 / 171010.4 12.4 7.7
2017-Dec-30 11:00S 43°00' E 015°48'4314.3 320 / 191011.1 13.2 8.2
2017-Dec-30 08:00S 42°18' E 016°00'1918.5 300 / 261012.7 16.710.2
2017-Dec-30 07:00S 42°00' E 016°06'1312.8 300 / 241013.1 17.5 9.7
2017-Dec-30 06:00S 41°48' E 016°12'1212.0 300 / 231013.5 17.9 9.4
2017-Dec-30 05:00S 41°36' E 016°12'1918.6 300 / 211013.6 17.9 9.0
2017-Dec-30 04:00S 41°18' E 016°18'1312.8 300 / 211014.0 17.9 8.5
2017-Dec-30 03:00S 41°06' E 016°24'1212.0 310 / 181014.4 17.210.4
2017-Dec-30 02:00S 40°54' E 016°24'1918.6 300 / 171014.8 16.910.4
2017-Dec-30 01:00S 40°36' E 016°30'1212.0 300 / 141016.8 16.910.4
2017-Dec-30 00:00S 40°24' E 016°30'1918.6 300 / 131015.7 17.210.9
2017-Dec-29 23:00S 40°06' E 016°36'4916.3 310 / 121016.3 17.510.4
2017-Dec-29 20:00S 39°18' E 016°48'1312.9 310 / 91017.0 19.2 9.9
2017-Dec-29 19:00S 39°06' E 016°54'1818.0 310 / 101016.9 19.4 9.4
2017-Dec-29 18:00S 38°48' E 016°54'1312.9 320 / 81016.8 19.710.4
2017-Dec-29 17:00S 38°36' E 017°00'2412.2 320 / 51016.7 20.2 9.7
2017-Dec-29 15:00S 38°12' E 017°06'1312.9 340 / 31016.5 20.4 9.9
2017-Dec-29 14:00S 38°00' E 017°12'1212.0 020 / 41016.7 20.0 9.4
2017-Dec-29 13:00S 37°48' E 017°12'1312.9 040 / 51016.9 19.9 9.2
2017-Dec-29 12:00S 37°36' E 017°18'1212.0 070 / 71016.9 19.9 9.5
2017-Dec-29 11:00S 37°24' E 017°18'1212.0 040 / 41016.9 19.7 9.9
2017-Dec-29 10:00S 37°12' E 017°18'1312.9 060 / 41017.4 19.5 9.7
2017-Dec-29 09:00S 37°00' E 017°24'19 6.2 090 / 71017.2 19.4 9.9
2017-Dec-29 06:00S 36°42' E 017°30'1212.0 080 / 101017.7 19.2 9.7
2017-Dec-29 05:00S 36°30' E 017°30'1312.9 080 / 121017.3 19.410.0
2017-Dec-29 04:00S 36°18' E 017°36'1212.0 080 / 171016.5 19.2 9.7
2017-Dec-29 03:00S 36°06' E 017°36'1918.6 090 / 181016.1 19.210.2
2017-Dec-29 02:00S 35°48' E 017°42'1313.0 100 / 191015.0 19.211.2
2017-Dec-29 01:00S 35°36' E 017°48'1818.0 100 / 181014.9 19.211.7
2017-Dec-29 00:00S 35°18' E 017°48'1313.0 100 / 211014.7 19.411.7
2017-Dec-28 23:00S 35°06' E 017°54'1918.7 110 / 231015.0 19.511.4
2017-Dec-28 22:00S 34°48' E 018°00'1212.0 120 / 251014.6 19.411.9
2017-Dec-28 21:00S 34°36' E 018°00'1313.0 120 / 271014.2 19.511.9
2017-Dec-28 20:00S 34°24' E 018°06'1212.0 130 / 271013.1 19.910.5
2017-Dec-28 19:00S 34°12' E 018°06'2311.7 150 / 251012.1 17.5 9.9
2017-Dec-28 17:00S 33°54' E 018°24'   160 / 271010.6 22.9 7.4
2017-Dec-26 06:00S 33°54' E 018°24'27 9.0 160 / 341017.5 17.2 1.2
2017-Dec-26 03:00S 33°36' E 018°00'2311.7 160 / 211019.0 15.2 4.5
2017-Dec-26 01:00S 33°18' E 017°42'2814.2 160 / 241019.4 14.2 6.2
2017-Dec-25 23:00S 32°54' E 017°24'8 7.8 160 / 301020.3 15.4 5.7
2017-Dec-25 22:00S 32°48' E 017°18'2814.2 160 / 301022.4 15.9 5.7
2017-Dec-25 20:00S 32°24' E 017°00'2411.8 170 / 251023.4 15.9 6.7
2017-Dec-25 18:00S 32°06' E 016°42'1313.0 170 / 271020.9 16.2 6.5
2017-Dec-25 17:00S 31°54' E 016°36'2411.8 170 / 291021.9 16.7 6.5
2017-Dec-25 15:00S 31°36' E 016°18'2411.8 160 / 261020.1 17.2 5.5
2017-Dec-25 13:00S 31°18' E 016°00'8 7.9 160 / 231020.9 17.4 6.2
2017-Dec-25 12:00S 31°12' E 015°54'1615.8 150 / 191021.2 17.4 6.0
2017-Dec-25 11:00S 31°00' E 015°42'1313.1 150 / 171021.1 17.4 6.9
2017-Dec-25 10:00S 30°48' E 015°36'1211.9 150 / 201021.2 17.5 7.5
2017-Dec-25 09:00S 30°42' E 015°24'1313.1 150 / 211020.9 17.4 7.2
2017-Dec-25 08:00S 30°30' E 015°18'   150 / 181020.7 17.7 9.0
Track history (hours):
 
Tides and Currents Weather Stations Pressure Air Temp Water Temp Dewpoint Dewpoint Depression Visibility Wind Speed Wind Dir Waves Ship Positions

Mary Arctica

Last reported at 2018-Jan-04 08:00 UTC. Time now 2018-Jan-18 00:19 UTC.
Position S 67°30' E 006°48'.
Warning: this ship's position is 13 days out of date.

Wind from 240 at 27 knots

Barometer 975.4 mb
Air temperature -1.3 ° C
Dewpoint -9.3 ° C

Date/timePositionNaut miles runAvg speedWind from/ knotsBaromVisibWave heightAir tempDewpointWater temp
2018-Jan-04 08:00S 67°30' E 006°48'4912.2 240 / 27975.4 -1.3-9.3
2018-Jan-04 04:00S 66°42' E 007°12'2412.2 240 / 19978.3 -1.3-10.3
2018-Jan-04 02:00S 66°18' E 007°24'1312.9 240 / 18978.9 -0.8-9.0
2018-Jan-04 01:00S 66°06' E 007°36'1212.2 240 / 18979.0 -0.8-8.7
2018-Jan-04 00:00S 65°54' E 007°42'1212.2 250 / 16979.4 -0.8-8.5
2018-Jan-03 23:00S 65°42' E 007°48'3015.2 240 / 15979.6 -0.8-8.7
2018-Jan-03 21:00S 65°12' E 008°00'2512.3 250 / 12979.5 -0.6-8.5
2018-Jan-03 19:00S 64°48' E 008°12'1212.3 270 / 13979.4 -0.2-7.8
2018-Jan-03 18:00S 64°36' E 008°18'1818.2 270 / 12979.4 -0.3-8.0
2018-Jan-03 17:00S 64°18' E 008°24'1212.3 260 / 14979.8 -0.3-8.2
2018-Jan-03 16:00S 64°06' E 008°30'6813.6 260 / 13980.0 -0.3-8.0
2018-Jan-03 11:00S 63°00' E 009°06'1212.0 260 / 14981.3 -1.0-6.8
2018-Jan-03 10:00S 62°48' E 009°06'9213.1 250 / 16981.3 -0.7-7.1
2018-Jan-03 03:00S 61°18' E 009°42'3712.3 250 / 21983.1 -0.7-7.1
2018-Jan-03 00:00S 60°42' E 010°00'1212.0 240 / 24983.6 -0.7-6.6
2018-Jan-02 23:00S 60°30' E 010°00'1212.4 240 / 25983.7 -0.7-6.3
2018-Jan-02 22:00S 60°18' E 010°06'1212.4 240 / 26983.5 -0.6-7.2
2018-Jan-02 21:00S 60°06' E 010°12'2512.4 230 / 27983.0 -0.5-6.7
2018-Jan-02 19:00S 59°42' E 010°24'1212.0 230 / 29982.1 -0.3-7.2
2018-Jan-02 18:00S 59°30' E 010°24'7 6.7 230 / 28981.8 -0.6-6.5
2018-Jan-02 17:00S 59°24' E 010°30'2512.4 230 / 28982.0 -0.3-6.3
2018-Jan-02 15:00S 59°00' E 010°42'1212.0 230 / 28981.5 -0.3-6.7
2018-Jan-02 14:00S 58°48' E 010°42'5511.1 230 / 31980.5 -0.5-6.7
2018-Jan-02 09:00S 57°54' E 011°06'18 9.1 230 / 34978.3 -0.3-6.5
2018-Jan-02 07:00S 57°36' E 011°12'2412.1 230 / 33977.7 -0.6-6.5
2018-Jan-02 05:00S 57°12' E 011°18'7412.3 240 / 31977.2 -0.6-7.0
2018-Jan-01 23:00S 56°00' E 011°48'2412.1 260 / 30977.5 -0.3-5.8
2018-Jan-01 21:00S 55°36' E 011°54'2412.1 260 / 30977.6 -0.1-5.7
2018-Jan-01 19:00S 55°12' E 012°00'1212.5 260 / 29976.7 -0.0-5.3
2018-Jan-01 18:00S 55°00' E 012°06'1212.5 260 / 30976.4 -0.1-4.8
2018-Jan-01 17:00S 54°48' E 012°12'2412.1 260 / 31976.1 0.2-5.3
2018-Jan-01 15:00S 54°24' E 012°18'1312.5 270 / 33975.1 0.2-4.3
2018-Jan-01 14:00S 54°12' E 012°24'1312.5 290 / 29976.0 -0.0-4.3
2018-Jan-01 13:00S 54°00' E 012°30'1312.5 290 / 32977.0 0.4-4.7
2018-Jan-01 12:00S 53°48' E 012°36'2412.1 300 / 28978.3 0.7-4.6
2018-Jan-01 10:00S 53°24' E 012°42'1818.4 280 / 25980.4 0.7-3.5
2018-Jan-01 09:00S 53°06' E 012°48'1312.5 290 / 24980.9 1.0-2.8
2018-Jan-01 08:00S 52°54' E 012°54'4314.2 300 / 21982.0 1.0-2.8
2018-Jan-01 05:00S 52°12' E 013°06'1312.6 290 / 22984.8 1.7-2.5
2018-Jan-01 04:00S 52°00' E 013°12'1212.0 300 / 23985.4 2.2-1.8
2018-Jan-01 03:00S 51°48' E 013°12'4314.2 310 / 25986.2 2.4-1.7
2018-Jan-01 00:00S 51°06' E 013°24'1312.6 320 / 33989.6 3.7-0.7
2017-Dec-31 23:00S 50°54' E 013°30'1312.6 330 / 33991.5 3.5-0.8
2017-Dec-31 22:00S 50°42' E 013°36'1312.6 330 / 32994.3 3.4-1.0
2017-Dec-31 21:00S 50°30' E 013°42'5513.6
2017-Dec-31 17:00S 49°36' E 013°54'1312.6 310 / 281002.6 4.2-0.6
2017-Dec-31 16:00S 49°24' E 014°00'3015.1 310 / 231004.0 4.4-0.2
2017-Dec-31 14:00S 48°54' E 014°06'1312.6 320 / 181006.3 4.7-0.3
2017-Dec-31 13:00S 48°42' E 014°12'3015.1 310 / 171007.5 4.9-0.3
2017-Dec-31 11:00S 48°12' E 014°18'4912.4 300 / 151008.5 4.9-0.7
2017-Dec-31 07:00S 47°24' E 014°36'1212.0 180 / 91009.1 4.2-2.7
2017-Dec-31 06:00S 47°12' E 014°36'1818.5 190 / 131008.8 3.9-2.8
2017-Dec-31 05:00S 46°54' E 014°42'2412.2 180 / 141007.8 3.9-3.2
2017-Dec-31 03:00S 46°30' E 014°48'2512.7 180 / 141007.0 3.9-1.7
2017-Dec-31 01:00S 46°06' E 015°00'4314.3 180 / 101006.0 5.4 0.4
2017-Dec-30 22:00S 45°24' E 015°12'1212.0 160 / 101006.3 6.2 1.9
2017-Dec-30 21:00S 45°12' E 015°12'1312.7 160 / 91006.4 6.7 2.4
2017-Dec-30 20:00S 45°00' E 015°18'1818.5 140 / 11006.7 8.4 3.9
2017-Dec-30 19:00S 44°42' E 015°24'1212.0 090 / 21005.9 9.0 4.7
2017-Dec-30 18:00S 44°30' E 015°24'1312.7 290 / 51008.3 10.5 6.2
2017-Dec-30 17:00S 44°18' E 015°30'1212.0 300 / 151008.9 10.7 6.2
2017-Dec-30 16:00S 44°06' E 015°30'4314.3 300 / 171008.9 11.7 7.2
2017-Dec-30 13:00S 43°24' E 015°42'1312.8 320 / 181009.6 12.2 7.5
2017-Dec-30 12:00S 43°12' E 015°48'1212.0 320 / 171010.4 12.4 7.7
2017-Dec-30 11:00S 43°00' E 015°48'4314.3 320 / 191011.1 13.2 8.2
2017-Dec-30 08:00S 42°18' E 016°00'1918.5 300 / 261012.7 16.710.2
2017-Dec-30 07:00S 42°00' E 016°06'1312.8 300 / 241013.1 17.5 9.7
2017-Dec-30 06:00S 41°48' E 016°12'1212.0 300 / 231013.5 17.9 9.4
2017-Dec-30 05:00S 41°36' E 016°12'1918.6 300 / 211013.6 17.9 9.0
2017-Dec-30 04:00S 41°18' E 016°18'1312.8 300 / 211014.0 17.9 8.5
2017-Dec-30 03:00S 41°06' E 016°24'1212.0 310 / 181014.4 17.210.4
2017-Dec-30 02:00S 40°54' E 016°24'1918.6 300 / 171014.8 16.910.4
2017-Dec-30 01:00S 40°36' E 016°30'1212.0 300 / 141016.8 16.910.4
2017-Dec-30 00:00S 40°24' E 016°30'1918.6 300 / 131015.7 17.210.9
2017-Dec-29 23:00S 40°06' E 016°36'4916.3 310 / 121016.3 17.510.4
2017-Dec-29 20:00S 39°18' E 016°48'1312.9 310 / 91017.0 19.2 9.9
2017-Dec-29 19:00S 39°06' E 016°54'1818.0 310 / 101016.9 19.4 9.4
2017-Dec-29 18:00S 38°48' E 016°54'1312.9 320 / 81016.8 19.710.4
2017-Dec-29 17:00S 38°36' E 017°00'2412.2 320 / 51016.7 20.2 9.7
2017-Dec-29 15:00S 38°12' E 017°06'1312.9 340 / 31016.5 20.4 9.9
2017-Dec-29 14:00S 38°00' E 017°12'1212.0 020 / 41016.7 20.0 9.4
2017-Dec-29 13:00S 37°48' E 017°12'1312.9 040 / 51016.9 19.9 9.2
2017-Dec-29 12:00S 37°36' E 017°18'1212.0 070 / 71016.9 19.9 9.5
2017-Dec-29 11:00S 37°24' E 017°18'1212.0 040 / 41016.9 19.7 9.9
2017-Dec-29 10:00S 37°12' E 017°18'1312.9 060 / 41017.4 19.5 9.7
2017-Dec-29 09:00S 37°00' E 017°24'19 6.2 090 / 71017.2 19.4 9.9
2017-Dec-29 06:00S 36°42' E 017°30'1212.0 080 / 101017.7 19.2 9.7
2017-Dec-29 05:00S 36°30' E 017°30'1312.9 080 / 121017.3 19.410.0
2017-Dec-29 04:00S 36°18' E 017°36'1212.0 080 / 171016.5 19.2 9.7
2017-Dec-29 03:00S 36°06' E 017°36'1918.6 090 / 181016.1 19.210.2
2017-Dec-29 02:00S 35°48' E 017°42'1313.0 100 / 191015.0 19.211.2
2017-Dec-29 01:00S 35°36' E 017°48'1818.0 100 / 181014.9 19.211.7
2017-Dec-29 00:00S 35°18' E 017°48'1313.0 100 / 211014.7 19.411.7
2017-Dec-28 23:00S 35°06' E 017°54'1918.7 110 / 231015.0 19.511.4
2017-Dec-28 22:00S 34°48' E 018°00'1212.0 120 / 251014.6 19.411.9
2017-Dec-28 21:00S 34°36' E 018°00'1313.0 120 / 271014.2 19.511.9
2017-Dec-28 20:00S 34°24' E 018°06'1212.0 130 / 271013.1 19.910.5
2017-Dec-28 19:00S 34°12' E 018°06'2311.7 150 / 251012.1 17.5 9.9
2017-Dec-28 17:00S 33°54' E 018°24'   160 / 271010.6 22.9 7.4
2017-Dec-26 06:00S 33°54' E 018°24'27 9.0 160 / 341017.5 17.2 1.2
2017-Dec-26 03:00S 33°36' E 018°00'2311.7 160 / 211019.0 15.2 4.5
2017-Dec-26 01:00S 33°18' E 017°42'2814.2 160 / 241019.4 14.2 6.2
2017-Dec-25 23:00S 32°54' E 017°24'8 7.8 160 / 301020.3 15.4 5.7
2017-Dec-25 22:00S 32°48' E 017°18'2814.2 160 / 301022.4 15.9 5.7
2017-Dec-25 20:00S 32°24' E 017°00'2411.8 170 / 251023.4 15.9 6.7
2017-Dec-25 18:00S 32°06' E 016°42'1313.0 170 / 271020.9 16.2 6.5
2017-Dec-25 17:00S 31°54' E 016°36'2411.8 170 / 291021.9 16.7 6.5
2017-Dec-25 15:00S 31°36' E 016°18'2411.8 160 / 261020.1 17.2 5.5
2017-Dec-25 13:00S 31°18' E 016°00'8 7.9 160 / 231020.9 17.4 6.2
2017-Dec-25 12:00S 31°12' E 015°54'1615.8 150 / 191021.2 17.4 6.0
2017-Dec-25 11:00S 31°00' E 015°42'1313.1 150 / 171021.1 17.4 6.9
2017-Dec-25 10:00S 30°48' E 015°36'1211.9 150 / 201021.2 17.5 7.5
2017-Dec-25 09:00S 30°42' E 015°24'1313.1 150 / 211020.9 17.4 7.2
2017-Dec-25 08:00S 30°30' E 015°18'   150 / 181020.7 17.7 9.0

Dump ship's entire track history